North Las Vegas Airport Las Vegas US
ICAO: KVGT
IATA: VGT
Category: Medium
Scheduled Services: No

Elevation: 2205 ft
TransAlt. 18000 ft.

Airport Communications:
LAS VEGAS APP:119.4
NELLIS APP:118.125
ASOS:118.05
ATIS:118.05
CLNC DEL:124
CTAF:125.7
GND:121.7
TWR:125.7
UNICOM:122.95

KVGT Zoom In..

Runways:

(A) RW 07 length 5005 ft width 75 ft
---- / hdg 74

(B) RW 12L length 4203 ft width 75 ft
ILS 110.70 / hdg 120

(C) RW 12R length 5001 ft width 75 ft
---- / hdg 120

(D) RW 25 length 5005 ft width 75 ft
---- / hdg 254

(E) RW 30L length 5001 ft width 75 ft
---- / hdg 300

(F) RW 30R length 4203 ft width 75 ft
---- / hdg 300

Location; KVGT
Day. 24 / Time. 07.53 Zulu
* Altimeter: 29.90
* Temperature: 26° c. 78.8°f.
* Wind from: 220° Speed 04 kn.
Dewpoint: 01° c.
Visibility: 10 Statute Miles.
Clouds: Clear (automated report).

KVGT 240753Z AUTO 22004KT 10SM CLR 26/01 A2990 RMK AO2 SLP118 T02560006 403220183


Wind From 220°
Speed 04 kn.

 
 
jpsmedia.com for Web Design SOUNDCLOUD worldairports.se 2018   terms of use